Time;durP1;ratioP1;P1;durP2;ratioP2;P2;SDS_P1;SDS_P2;PMS_P1;PMS_P2;Temp;Humidity;BMP_temperature;BMP_pressure;BME280_temperature;BME280_humidity;BME280_pressure;Samples;Min_cycle;Max_cycle;Signal;HPM_P1;HPM_P2
2023/12/10 00:01:29;;;;;;;27.00;5.43;;;;;;;7.23;100.00;99253.25;4905950;29;20051;-79
2023/12/10 00:03:57;;;;;;;24.02;5.78;;;;;;;7.22;100.00;99261.97;4910046;29;20054;-78
2023/12/10 00:06:24;;;;;;;21.35;4.75;;;;;;;7.22;100.00;99267.22;4902562;29;20119;-77
2023/12/10 00:08:52;;;;;;;32.80;4.68;;;;;;;7.20;100.00;99269.88;4905067;29;20054;-77
2023/12/10 00:11:19;;;;;;;20.42;4.55;;;;;;;7.20;100.00;99264.63;4911179;29;20429;-79
2023/12/10 00:13:47;;;;;;;30.92;4.93;;;;;;;7.21;100.00;99268.13;4886737;29;20050;-78
2023/12/10 00:16:14;;;;;;;35.80;5.15;;;;;;;7.17;100.00;99267.25;4916737;29;20047;-80
2023/12/10 00:18:41;;;;;;;31.38;5.82;;;;;;;7.14;100.00;99269.91;4879934;29;20059;-77
2023/12/10 00:21:12;;;;;;;22.98;3.75;;;;;;;7.11;100.00;99274.31;4931338;29;20055;-78
2023/12/10 00:23:40;;;;;;;25.38;4.28;;;;;;;7.08;100.00;99269.97;4917462;29;20047;-78
2023/12/10 00:26:08;;;;;;;27.33;4.40;;;;;;;7.07;100.00;99273.47;4924209;29;21013;-78
2023/12/10 00:28:35;;;;;;;24.90;4.60;;;;;;;7.06;100.00;99281.34;4864312;29;20054;-77
2023/12/10 00:31:07;;;;;;;24.20;4.30;;;;;;;7.03;100.00;99283.09;4923243;29;20082;-78
2023/12/10 00:33:35;;;;;;;18.23;3.72;;;;;;;7.02;100.00;99289.22;4892387;29;20060;-77
2023/12/10 00:36:03;;;;;;;22.83;4.07;;;;;;;7.03;100.00;99290.06;4930091;29;20047;-78
2023/12/10 00:38:30;;;;;;;21.73;4.20;;;;;;;7.03;100.00;99287.44;4921148;29;20047;-80
2023/12/10 00:40:58;;;;;;;34.30;5.97;;;;;;;7.03;100.00;99290.97;4908861;29;20043;-78
2023/12/10 00:43:25;;;;;;;23.70;4.15;;;;;;;7.02;100.00;99289.22;4905219;29;20421;-79
2023/12/10 00:45:53;;;;;;;29.17;5.10;;;;;;;7.01;100.00;99297.97;4871565;29;20428;-78
2023/12/10 00:48:20;;;;;;;32.33;5.93;;;;;;;7.02;100.00;99304.06;4902627;29;20055;-77
2023/12/10 00:50:48;;;;;;;22.50;4.03;;;;;;;7.03;100.00;99305.78;4905060;29;20051;-77
2023/12/10 00:53:15;;;;;;;32.75;4.63;;;;;;;7.02;100.00;99310.16;4906621;29;20405;-77
2023/12/10 00:55:44;;;;;;;32.05;5.10;;;;;;;7.04;100.00;99310.16;4914858;29;20047;-79
2023/12/10 00:58:13;;;;;;;23.98;4.25;;;;;;;7.03;100.00;99311.91;4897964;29;20424;-79
2023/12/10 01:00:41;;;;;;;23.35;5.00;;;;;;;7.02;100.00;99310.16;4883524;29;20058;-77
2023/12/10 01:03:10;;;;;;;24.30;4.15;;;;;;;7.00;100.00;99306.69;4927083;29;20047;-78
2023/12/10 01:05:37;;;;;;;25.52;4.10;;;;;;;7.00;100.00;99309.31;4913718;29;20051;-78
2023/12/10 01:08:05;;;;;;;28.40;4.28;;;;;;;7.01;100.00;99299.69;4919869;29;20054;-78
2023/12/10 01:10:32;;;;;;;31.40;5.75;;;;;;;7.01;100.00;99316.28;4903298;29;20047;-79
2023/12/10 01:13:00;;;;;;;31.33;4.88;;;;;;;7.02;100.00;99312.78;4937060;29;20054;-80
2023/12/10 01:15:31;;;;;;;30.05;6.25;;;;;;;7.04;100.00;99323.25;4931926;29;20043;-80
2023/12/10 01:18:02;;;;;;;23.92;4.95;;;;;;;7.05;100.00;99319.75;4890393;29;20074;-78
2023/12/10 01:20:34;;;;;;;31.33;4.53;;;;;;;7.05;100.00;99325.00;4914272;29;20047;-78
2023/12/10 01:23:04;;;;;;;27.55;3.95;;;;;;;7.03;100.00;99335.47;4935851;29;20056;-79
2023/12/10 01:25:31;;;;;;;20.63;3.97;;;;;;;7.05;100.00;99340.72;4897527;29;20054;-78
2023/12/10 01:28:00;;;;;;;18.90;4.32;;;;;;;7.06;100.00;99338.97;4926876;29;20161;-78
2023/12/10 01:30:27;;;;;;;17.92;3.53;;;;;;;7.05;100.00;99329.34;4907526;29;20070;-79
2023/12/10 01:32:58;;;;;;;20.88;4.60;;;;;;;7.07;100.00;99335.44;4890943;29;20051;-78
2023/12/10 01:35:26;;;;;;;24.75;4.10;;;;;;;7.08;100.00;99332.81;4909850;29;20035;-78
2023/12/10 01:37:54;;;;;;;23.20;4.13;;;;;;;7.05;100.00;99334.59;4924927;29;20043;-78
2023/12/10 01:40:22;;;;;;;14.35;2.30;;;;;;;7.00;100.00;99339.88;4949579;28;20043;-79
2023/12/10 01:42:50;;;;;;;16.77;2.35;;;;;;;6.96;100.00;99336.41;4912593;29;20077;-79
2023/12/10 01:45:20;;;;;;;28.52;3.10;;;;;;;6.93;100.00;99328.56;4902006;29;20035;-79
2023/12/10 01:47:49;;;;;;;22.63;3.00;;;;;;;6.91;100.00;99332.94;4866356;29;20051;-77
2023/12/10 01:50:18;;;;;;;17.73;3.13;;;;;;;6.86;100.00;99324.22;4936452;29;20048;-78
2023/12/10 01:52:49;;;;;;;14.73;2.30;;;;;;;6.85;100.00;99342.59;4915413;29;20047;-77
2023/12/10 01:55:17;;;;;;;14.43;2.40;;;;;;;6.83;100.00;99337.34;4918965;29;20037;-79
2023/12/10 01:57:46;;;;;;;22.17;3.83;;;;;;;6.81;100.00;99347.81;4914942;29;20058;-78
2023/12/10 02:00:14;;;;;;;16.67;2.65;;;;;;;6.80;100.00;99337.34;4906385;29;20047;-77
2023/12/10 02:02:42;;;;;;;12.35;2.55;;;;;;;6.78;100.00;99339.13;4856700;29;20444;-78
2023/12/10 02:05:10;;;;;;;21.48;2.92;;;;;;;6.78;100.00;99336.50;4892140;29;20052;-78
2023/12/10 02:07:42;;;;;;;12.20;2.45;;;;;;;6.77;100.00;99338.25;4912281;29;20408;-79
2023/12/10 02:10:10;;;;;;;20.70;2.80;;;;;;;6.75;100.00;99326.06;4929806;29;20047;-80
2023/12/10 02:12:39;;;;;;;17.25;2.20;;;;;;;6.74;100.00;99332.16;4909712;29;20055;-79
2023/12/10 02:15:16;;;;;;;9.55;2.03;;;;;;;6.74;100.00;99334.78;4915093;29;20039;-77
2023/12/10 02:17:45;;;;;;;15.07;2.30;;;;;;;6.71;100.00;99324.31;4887564;29;20050;-78
2023/12/10 02:20:13;;;;;;;11.82;2.58;;;;;;;6.69;100.00;99331.31;4917396;29;20051;-78
2023/12/10 02:22:55;;;;;;;14.68;2.13;;;;;;;6.68;100.00;99340.06;4932863;29;20047;-78
2023/12/10 02:25:38;;;;;;;24.90;2.58;;;;;;;6.67;100.00;99331.31;4890027;29;20060;-78
2023/12/10 02:28:07;;;;;;;20.77;3.17;;;;;;;6.64;100.00;99333.97;4929060;29;20047;-78
2023/12/10 02:30:35;;;;;;;14.63;2.28;;;;;;;6.63;100.00;99330.50;4929154;29;20586;-79
2023/12/10 02:33:03;;;;;;;22.33;2.78;;;;;;;6.63;100.00;99329.59;4875091;29;20055;-78
2023/12/10 02:35:31;;;;;;;14.30;2.50;;;;;;;6.62;100.00;99323.50;4890099;29;20048;-78
2023/12/10 02:37:59;;;;;;;14.20;2.78;;;;;;;6.62;100.00;99326.13;4898694;29;20064;-79
2023/12/10 02:40:26;;;;;;;12.60;2.00;;;;;;;6.62;100.00;99328.72;4929359;29;20070;-78
2023/12/10 02:42:53;;;;;;;13.15;1.92;;;;;;;6.64;100.00;99323.50;4930729;29;20066;-78
2023/12/10 02:45:21;;;;;;;11.50;2.30;;;;;;;6.63;100.00;99319.13;4911069;29;20051;-79
2023/12/10 02:47:48;;;;;;;17.13;2.10;;;;;;;6.62;100.00;99315.66;4878524;29;20058;-80
2023/12/10 02:50:16;;;;;;;16.05;2.53;;;;;;;6.61;100.00;99316.50;4896802;29;20058;-79
2023/12/10 02:52:43;;;;;;;15.32;2.38;;;;;;;6.60;100.00;99306.94;4903836;29;20133;-78
2023/12/10 02:55:11;;;;;;;15.95;2.42;;;;;;;6.62;100.00;99312.16;4885781;29;20051;-78
2023/12/10 02:57:38;;;;;;;12.70;2.30;;;;;;;6.61;100.00;99310.41;4943023;29;20047;-78
2023/12/10 03:00:10;;;;;;;12.15;2.75;;;;;;;6.62;100.00;99309.56;4912364;29;20055;-78
2023/12/10 03:02:38;;;;;;;17.42;2.47;;;;;;;6.62;100.00;99307.78;4888251;29;20058;-79
2023/12/10 03:05:06;;;;;;;11.13;1.92;;;;;;;6.64;100.00;99307.78;4930312;29;20386;-78
2023/12/10 03:07:33;;;;;;;14.57;2.38;;;;;;;6.64;100.00;99306.03;4917675;29;20120;-78
2023/12/10 03:10:01;;;;;;;13.73;2.17;;;;;;;6.64;100.00;99313.88;4943158;29;20054;-78
2023/12/10 03:12:28;;;;;;;11.40;2.20;;;;;;;6.65;100.00;99306.91;4943057;29;20043;-78
2023/12/10 03:14:56;;;;;;;18.23;2.40;;;;;;;6.64;100.00;99308.66;4929402;29;20058;-79
2023/12/10 03:17:23;;;;;;;14.05;2.00;;;;;;;6.64;100.00;99316.50;4910019;29;20051;-78
2023/12/10 03:19:51;;;;;;;15.07;2.58;;;;;;;6.63;100.00;99306.94;4860422;29;20409;-79
2023/12/10 03:22:18;;;;;;;13.32;2.53;;;;;;;6.62;100.00;99313.03;4908958;29;20059;-80
2023/12/10 03:24:46;;;;;;;18.17;2.40;;;;;;;6.61;100.00;99313.03;4918453;29;20043;-80
2023/12/10 03:27:13;;;;;;;7.75;2.22;;;;;;;6.61;100.00;99302.56;4898045;29;20049;-78
2023/12/10 03:29:42;;;;;;;10.32;2.03;;;;;;;6.60;100.00;99303.47;4920803;29;20051;-78
2023/12/10 03:32:10;;;;;;;17.00;2.70;;;;;;;6.60;100.00;99298.22;4912040;29;20051;-78
2023/12/10 03:34:37;;;;;;;15.10;2.92;;;;;;;6.60;100.00;99298.22;4891549;29;20043;-79
2023/12/10 03:37:04;;;;;;;13.65;2.42;;;;;;;6.60;100.00;99299.09;4899350;29;20047;-78
2023/12/10 03:39:32;;;;;;;9.45;2.38;;;;;;;6.59;100.00;99305.19;4922883;29;20066;-78
2023/12/10 03:42:00;;;;;;;14.07;1.85;;;;;;;6.58;100.00;99295.59;4921380;29;20054;-78
2023/12/10 03:44:31;;;;;;;11.05;2.05;;;;;;;6.58;100.00;99303.47;4895546;29;20058;-78
2023/12/10 03:47:02;;;;;;;15.23;2.00;;;;;;;6.58;100.00;99299.97;4935057;29;20058;-79
2023/12/10 03:49:30;;;;;;;9.20;2.15;;;;;;;6.57;100.00;99290.38;4932473;29;20838;-78
2023/12/10 03:51:58;;;;;;;10.25;1.48;;;;;;;6.55;100.00;99295.63;4901368;29;20050;-79
2023/12/10 03:54:25;;;;;;;11.80;2.55;;;;;;;6.55;100.00;99293.00;4931428;29;20066;-77
2023/12/10 03:56:53;;;;;;;8.30;1.70;;;;;;;6.55;100.00;99279.03;4906218;29;20047;-77
2023/12/10 03:59:20;;;;;;;12.80;2.55;;;;;;;6.53;100.00;99284.28;4922974;29;20050;-79
2023/12/10 04:01:48;;;;;;;11.63;1.52;;;;;;;6.54;100.00;99272.06;4933837;29;20062;-78
2023/12/10 04:04:15;;;;;;;13.35;2.22;;;;;;;6.54;100.00;99286.03;4930791;29;20124;-78
2023/12/10 04:06:43;;;;;;;11.02;1.88;;;;;;;6.54;100.00;99278.19;4902806;29;20413;-78
2023/12/10 04:09:10;;;;;;;14.43;1.98;;;;;;;6.54;100.00;99278.19;4905859;29;20063;-78
2023/12/10 04:11:38;;;;;;;12.45;2.53;;;;;;;6.54;100.00;99283.41;4888307;29;20092;-79
2023/12/10 04:14:09;;;;;;;17.42;2.28;;;;;;;6.55;100.00;99273.81;4896831;29;20063;-78
2023/12/10 04:16:38;;;;;;;10.23;2.03;;;;;;;6.55;100.00;99284.28;4933623;29;20050;-77
2023/12/10 04:19:06;;;;;;;11.60;1.95;;;;;;;6.54;100.00;99283.41;4932312;29;20051;-78
2023/12/10 04:21:33;;;;;;;12.68;1.77;;;;;;;6.54;100.00;99270.34;4902267;29;20122;-80
2023/12/10 04:24:03;;;;;;;8.55;1.90;;;;;;;6.55;100.00;99269.44;4905223;29;20497;-78
2023/12/10 04:26:30;;;;;;;8.00;1.50;;;;;;;6.55;100.00;99282.53;4933896;29;20893;-79
2023/12/10 04:28:58;;;;;;;6.63;1.33;;;;;;;6.56;100.00;99278.16;4906836;29;20035;-79
2023/12/10 04:31:25;;;;;;;10.63;1.40;;;;;;;6.57;100.00;99277.28;4918632;29;20116;-78
2023/12/10 04:33:53;;;;;;;6.50;1.40;;;;;;;6.57;100.00;99270.28;4933188;29;20051;-78
2023/12/10 04:36:20;;;;;;;6.80;1.13;;;;;;;6.57;100.00;99269.44;4930317;29;20050;-77
2023/12/10 04:38:48;;;;;;;8.02;1.02;;;;;;;6.58;100.00;99271.19;4860181;29;20047;-79
2023/12/10 04:41:16;;;;;;;8.80;1.63;;;;;;;6.60;100.00;99272.03;4945129;28;20047;-78
2023/12/10 04:43:43;;;;;;;5.50;0.93;;;;;;;6.60;100.00;99267.69;4941265;29;20511;-78
2023/12/10 04:46:11;;;;;;;4.05;1.10;;;;;;;6.61;100.00;99268.53;4913011;29;20047;-78
2023/12/10 04:48:39;;;;;;;3.45;0.88;;;;;;;6.61;100.00;99263.31;4930707;29;20047;-79
2023/12/10 04:51:07;;;;;;;6.38;0.95;;;;;;;6.61;100.00;99264.16;4915226;29;20047;-79
2023/12/10 04:53:34;;;;;;;2.60;0.80;;;;;;;6.63;100.00;99275.53;4932600;29;20062;-79
2023/12/10 04:56:02;;;;;;;9.35;1.70;;;;;;;6.63;100.00;99262.44;4877766;29;20377;-78
2023/12/10 04:58:30;;;;;;;6.00;1.20;;;;;;;6.65;100.00;99257.16;4907255;29;21409;-79
2023/12/10 05:00:57;;;;;;;8.18;1.67;;;;;;;6.66;100.00;99261.53;4902866;29;20062;-78
2023/12/10 05:03:25;;;;;;;6.18;1.45;;;;;;;6.67;100.00;99259.78;4937019;28;20903;-78
2023/12/10 05:05:52;;;;;;;11.23;1.65;;;;;;;6.68;100.00;99264.16;4931676;29;20047;-78
2023/12/10 05:08:19;;;;;;;7.32;1.70;;;;;;;6.68;100.00;99253.69;4937422;29;20493;-78
2023/12/10 05:10:47;;;;;;;6.65;1.60;;;;;;;6.69;100.00;99260.63;4868657;29;20047;-79
2023/12/10 05:13:14;;;;;;;6.80;1.50;;;;;;;6.68;100.00;99272.88;4901262;29;20054;-79
2023/12/10 05:15:42;;;;;;;8.50;1.83;;;;;;;6.69;100.00;99268.47;4919274;29;20058;-78
2023/12/10 05:18:09;;;;;;;8.55;1.60;;;;;;;6.69;100.00;99271.09;4913591;29;20044;-77
2023/12/10 05:20:37;;;;;;;6.97;1.60;;;;;;;6.69;100.00;99272.00;4947160;29;20062;-78
2023/12/10 05:23:04;;;;;;;8.02;1.73;;;;;;;6.71;100.00;99274.56;4924298;29;20715;-78
2023/12/10 05:25:32;;;;;;;8.88;1.58;;;;;;;6.74;100.00;99274.56;4914482;29;20544;-78
2023/12/10 05:28:00;;;;;;;8.15;1.70;;;;;;;6.76;100.00;99265.81;4861952;29;20056;-78
2023/12/10 05:30:28;;;;;;;7.00;1.75;;;;;;;6.81;100.00;99271.03;4903343;29;20556;-78
2023/12/10 05:32:56;;;;;;;9.05;2.03;;;;;;;6.85;100.00;99270.13;4905578;29;20054;-78
2023/12/10 05:35:23;;;;;;;5.75;1.80;;;;;;;6.88;100.00;99282.31;4929925;29;20441;-78
2023/12/10 05:37:51;;;;;;;7.45;1.88;;;;;;;6.91;100.00;99283.19;4931339;29;20062;-80
2023/12/10 05:40:18;;;;;;;5.88;1.90;;;;;;;6.93;100.00;99281.41;4921837;29;20040;-78
2023/12/10 05:42:46;;;;;;;10.10;1.98;;;;;;;6.95;100.00;99282.28;4887298;29;20050;-78
2023/12/10 05:45:14;;;;;;;6.15;1.50;;;;;;;6.95;100.00;99290.13;4897943;29;20438;-79
2023/12/10 05:47:42;;;;;;;10.00;1.70;;;;;;;6.95;100.00;99287.50;4915626;29;20039;-78
2023/12/10 05:50:09;;;;;;;5.03;1.60;;;;;;;6.99;100.00;99297.09;4887822;29;20503;-78
2023/12/10 05:52:37;;;;;;;11.10;2.10;;;;;;;7.00;100.00;99283.13;4927560;29;20058;-79
2023/12/10 05:55:04;;;;;;;4.75;1.27;;;;;;;7.02;100.00;99298.81;4922783;29;20520;-79
2023/12/10 05:57:32;;;;;;;5.53;1.40;;;;;;;7.02;100.00;99291.81;4876301;29;20039;-78
2023/12/10 06:00:00;;;;;;;14.27;1.92;;;;;;;7.03;100.00;99304.06;4907631;29;20039;-79
2023/12/10 06:02:27;;;;;;;8.88;1.85;;;;;;;7.04;100.00;99302.28;4886366;29;20060;-80
2023/12/10 06:04:55;;;;;;;11.88;2.13;;;;;;;7.03;100.00;99311.91;4918113;29;20054;-78
2023/12/10 06:07:22;;;;;;;9.77;2.35;;;;;;;7.02;100.00;99310.16;4922345;29;20051;-79
2023/12/10 06:09:50;;;;;;;12.93;2.15;;;;;;;7.02;100.00;99323.25;4895144;29;20531;-78
2023/12/10 06:12:17;;;;;;;8.90;2.13;;;;;;;7.00;100.00;99325.03;4902079;29;20551;-78
2023/12/10 06:14:44;;;;;;;6.50;1.75;;;;;;;7.01;100.00;99323.25;4885470;29;20047;-79
2023/12/10 06:17:12;;;;;;;9.45;1.70;;;;;;;7.01;100.00;99328.50;4894661;29;20067;-78
2023/12/10 06:19:40;;;;;;;10.68;2.15;;;;;;;7.00;100.00;99332.88;4908259;29;20039;-79
2023/12/10 06:22:08;;;;;;;8.43;2.10;;;;;;;7.01;100.00;99338.97;4925476;29;20051;-78
2023/12/10 06:24:35;;;;;;;11.52;2.63;;;;;;;7.01;100.00;99329.38;4938293;29;20050;-78
2023/12/10 06:27:03;;;;;;;19.23;3.50;;;;;;;7.02;100.00;99346.81;4914170;29;20051;-78
2023/12/10 06:29:31;;;;;;;14.13;1.90;;;;;;;7.02;100.00;99344.22;4850442;29;20075;-80
2023/12/10 06:31:58;;;;;;;19.05;2.63;;;;;;;7.03;100.00;99348.59;4910884;29;20150;-78
2023/12/10 06:34:26;;;;;;;11.55;2.38;;;;;;;7.05;100.00;99366.03;4898623;29;20055;-78
2023/12/10 06:36:53;;;;;;;13.95;3.25;;;;;;;7.05;100.00;99374.78;4922914;29;20055;-80
2023/12/10 06:39:21;;;;;;;22.90;3.40;;;;;;;7.07;100.00;99367.78;4944776;29;20054;-79
2023/12/10 06:41:49;;;;;;;23.08;3.13;;;;;;;7.09;100.00;99380.84;4922132;29;20043;-77
2023/12/10 06:44:21;;;;;;;21.90;3.60;;;;;;;7.09;100.00;99391.31;4878402;29;20063;-78
2023/12/10 06:46:49;;;;;;;11.98;1.70;;;;;;;7.11;100.00;99395.69;4947353;29;20118;-79
2023/12/10 06:49:17;;;;;;;16.67;3.80;;;;;;;7.10;100.00;99417.50;4877850;29;20910;-79
2023/12/10 06:51:45;;;;;;;17.08;2.95;;;;;;;7.12;100.00;99420.13;4921803;29;20043;-78
2023/12/10 06:54:12;;;;;;;9.30;2.15;;;;;;;7.14;100.00;99421.84;4904002;29;20051;-79
2023/12/10 06:56:40;;;;;;;20.42;2.35;;;;;;;7.16;100.00;99433.19;4930361;29;20040;-80
2023/12/10 06:59:08;;;;;;;18.83;3.15;;;;;;;7.18;100.00;99443.66;4879575;29;20060;-77
2023/12/10 07:01:39;;;;;;;20.77;3.20;;;;;;;7.18;100.00;99446.28;4864282;29;20051;-78
2023/12/10 07:04:07;;;;;;;16.90;2.70;;;;;;;7.18;100.00;99469.84;4916341;29;20504;-78
2023/12/10 07:06:35;;;;;;;17.60;2.85;;;;;;;7.19;100.00;99476.84;4902214;29;20520;-79
2023/12/10 07:09:06;;;;;;;19.27;2.80;;;;;;;7.19;100.00;99495.19;4928163;29;20040;-79
2023/12/10 07:11:34;;;;;;;24.27;3.83;;;;;;;7.20;100.00;99504.78;4898710;29;20055;-79
2023/12/10 07:14:01;;;;;;;19.98;2.65;;;;;;;7.19;100.00;99506.53;4867830;29;20509;-78
2023/12/10 07:16:29;;;;;;;13.80;2.28;;;;;;;7.19;100.00;99532.72;4847320;29;20831;-78
2023/12/10 07:18:56;;;;;;;24.58;3.58;;;;;;;7.20;100.00;99538.84;4924796;29;20078;-79
2023/12/10 07:21:24;;;;;;;20.10;3.08;;;;;;;7.21;100.00;99543.22;4895649;29;20067;-79
2023/12/10 07:23:52;;;;;;;20.27;4.53;;;;;;;7.22;100.00;99544.94;4926336;29;20047;-78
2023/12/10 07:26:25;;;;;;;24.38;3.70;;;;;;;7.22;100.00;99555.41;4918767;29;20047;-78
2023/12/10 07:28:53;;;;;;;20.40;2.75;;;;;;;7.22;100.00;99560.66;4909976;29;20035;-78
2023/12/10 07:31:21;;;;;;;14.85;2.65;;;;;;;7.24;100.00;99574.66;4886138;29;20043;-78
2023/12/10 07:33:48;;;;;;;27.95;5.03;;;;;;;7.27;100.00;99585.09;4904098;29;20062;-78
2023/12/10 07:36:17;;;;;;;17.95;2.83;;;;;;;7.28;100.00;99591.22;4867108;29;20077;-78
2023/12/10 07:38:45;;;;;;;11.23;2.50;;;;;;;7.28;100.00;99597.34;4913598;29;20157;-78
2023/12/10 07:41:13;;;;;;;19.73;3.75;;;;;;;7.29;100.00;99613.94;4891151;29;20051;-78
2023/12/10 07:43:40;;;;;;;21.73;3.72;;;;;;;7.30;100.00;99621.78;4918340;29;20058;-79
2023/12/10 07:46:08;;;;;;;21.70;3.50;;;;;;;7.30;100.00;99632.28;4921455;29;20047;-79
2023/12/10 07:48:36;;;;;;;22.17;3.65;;;;;;;7.32;100.00;99634.91;4856364;29;20047;-78
2023/12/10 07:51:03;;;;;;;20.48;3.42;;;;;;;7.33;100.00;99647.09;4902752;29;20074;-79
2023/12/10 07:53:31;;;;;;;24.27;4.32;;;;;;;7.32;100.00;99654.09;4903838;29;20058;-79
2023/12/10 07:55:58;;;;;;;24.50;3.85;;;;;;;7.33;100.00;99665.44;4899422;29;20051;-80
2023/12/10 07:58:25;;;;;;;25.33;5.25;;;;;;;7.34;100.00;99657.59;4908842;29;21066;-78
2023/12/10 08:00:56;;;;;;;33.38;4.55;;;;;;;7.35;100.00;99676.78;4908330;29;20043;-78
2023/12/10 08:03:23;;;;;;;24.83;4.03;;;;;;;7.36;100.00;99671.56;4890230;29;20666;-79
2023/12/10 08:05:51;;;;;;;17.70;3.25;;;;;;;7.38;100.00;99671.56;4921025;29;20054;-78
2023/12/10 08:08:20;;;;;;;26.85;4.03;;;;;;;7.41;100.00;99692.53;4887672;29;20043;-78
2023/12/10 08:10:50;;;;;;;25.58;3.72;;;;;;;7.42;100.00;99691.63;4914804;29;20051;-78
2023/12/10 08:13:20;;;;;;;21.40;4.18;;;;;;;7.45;100.00;99714.34;4912198;29;20460;-80
2023/12/10 08:15:48;;;;;;;26.52;4.07;;;;;;;7.46;100.00;99716.09;4896944;29;20086;-78
2023/12/10 08:18:15;;;;;;;22.38;3.50;;;;;;;7.47;100.00;99726.59;4845139;29;20043;-78
2023/12/10 08:20:43;;;;;;;16.80;2.85;;;;;;;7.47;100.00;99718.72;4905566;29;20046;-79
2023/12/10 08:23:10;;;;;;;24.38;3.72;;;;;;;7.48;100.00;99730.06;4904120;29;20505;-78
2023/12/10 08:25:39;;;;;;;20.10;3.33;;;;;;;7.48;100.00;99736.19;4901811;29;20422;-80
2023/12/10 08:28:06;;;;;;;23.77;3.75;;;;;;;7.51;100.00;99735.31;4920536;29;20044;-79
2023/12/10 08:30:34;;;;;;;15.80;3.92;;;;;;;7.53;100.00;99752.78;4899957;29;20044;-79
2023/12/10 08:33:02;;;;;;;17.48;3.03;;;;;;;7.54;100.00;99746.66;4858090;29;20059;-79
2023/12/10 08:35:31;;;;;;;19.60;3.78;;;;;;;7.54;100.00;99754.53;4911741;29;20047;-79
2023/12/10 08:37:58;;;;;;;15.65;3.10;;;;;;;7.57;100.00;99761.50;4888068;29;20048;-79
2023/12/10 08:40:26;;;;;;;14.90;2.88;;;;;;;7.56;100.00;99775.47;4915015;29;20437;-78
2023/12/10 08:42:53;;;;;;;11.35;2.92;;;;;;;7.55;100.00;99785.09;4912609;29;20043;-78
2023/12/10 08:45:22;;;;;;;11.93;2.30;;;;;;;7.56;100.00;99789.50;4905647;29;20056;-80
2023/12/10 08:47:50;;;;;;;8.02;1.95;;;;;;;7.56;100.00;99797.34;4856614;29;20051;-79
2023/12/10 08:50:18;;;;;;;8.27;1.52;;;;;;;7.56;100.00;99796.44;4873318;29;20043;-79
2023/12/10 08:52:46;;;;;;;12.48;2.30;;;;;;;7.55;100.00;99792.97;4917286;29;20051;-78
2023/12/10 08:55:13;;;;;;;9.60;2.72;;;;;;;7.56;100.00;99796.44;4904030;29;20043;-79
2023/12/10 08:57:41;;;;;;;9.70;2.22;;;;;;;7.55;100.00;99823.56;4919011;29;20062;-79
2023/12/10 09:00:09;;;;;;;18.17;2.50;;;;;;;7.54;100.00;99817.47;4894875;29;20055;-79
2023/12/10 09:02:37;;;;;;;10.75;2.90;;;;;;;7.53;100.00;99834.03;4888714;29;20086;-79
2023/12/10 09:05:05;;;;;;;15.90;3.22;;;;;;;7.54;100.00;99843.66;4852861;29;20059;-79
2023/12/10 09:07:32;;;;;;;13.35;1.65;;;;;;;7.54;100.00;99840.16;4907098;29;20052;-79
2023/12/10 09:10:00;;;;;;;10.95;2.03;;;;;;;7.54;100.00;99845.41;4923591;29;20424;-80
2023/12/10 09:12:38;;;;;;;10.52;2.03;;;;;;;7.55;100.00;99844.53;4910533;29;20067;-80
2023/12/10 09:15:07;;;;;;;12.15;2.83;;;;;;;7.55;100.00;99852.41;4910850;29;20051;-79
2023/12/10 09:17:35;;;;;;;11.88;1.90;;;;;;;7.56;100.00;99862.00;4916471;29;20047;-80
2023/12/10 09:20:04;;;;;;;17.08;2.13;;;;;;;7.56;100.00;99876.00;4888906;29;20043;-79
2023/12/10 09:22:31;;;;;;;17.20;2.60;;;;;;;7.56;100.00;99881.25;4897028;29;20063;-79
2023/12/10 09:25:00;;;;;;;17.33;2.35;;;;;;;7.54;100.00;99883.00;4912754;29;20047;-79
2023/12/10 09:27:28;;;;;;;16.23;2.80;;;;;;;7.54;100.00;99892.59;4892413;29;20047;-79
2023/12/10 09:29:56;;;;;;;12.50;2.35;;;;;;;7.53;100.00;99894.34;4918091;29;20046;-79
2023/12/10 09:32:26;;;;;;;9.93;2.53;;;;;;;7.53;100.00;99898.72;4906193;28;20046;-77
2023/12/10 09:34:55;;;;;;;12.77;2.28;;;;;;;7.53;100.00;99894.34;4923164;29;20503;-79
2023/12/10 09:37:23;;;;;;;10.15;1.75;;;;;;;7.54;100.00;99910.94;4866960;29;20051;-79
2023/12/10 09:39:50;;;;;;;16.10;2.45;;;;;;;7.54;100.00;99913.56;4915998;29;20032;-78
2023/12/10 09:42:18;;;;;;;14.43;3.08;;;;;;;7.52;100.00;99921.41;4896358;29;20157;-80
2023/12/10 09:44:45;;;;;;;11.52;2.78;;;;;;;7.52;100.00;99923.19;4927697;29;20043;-79
2023/12/10 09:47:14;;;;;;;23.10;2.92;;;;;;;7.48;100.00;99914.44;4878971;29;20051;-78
2023/12/10 09:49:43;;;;;;;16.00;2.83;;;;;;;7.48;100.00;99927.53;4909078;29;20047;-79
2023/12/10 09:52:10;;;;;;;23.95;2.88;;;;;;;7.48;100.00;99924.06;4872698;29;20048;-79
2023/12/10 09:54:40;;;;;;;19.20;3.20;;;;;;;7.49;100.00;99921.44;4892883;29;20497;-78
2023/12/10 09:57:11;;;;;;;19.90;2.85;;;;;;;7.48;100.00;99924.06;4915266;29;20362;-77
2023/12/10 09:59:39;;;;;;;24.17;3.63;;;;;;;7.48;100.00;99937.16;4889384;29;20047;-78
2023/12/10 10:02:10;;;;;;;21.70;3.42;;;;;;;7.47;100.00;99943.28;4924784;29;20047;-78
2023/12/10 10:04:41;;;;;;;15.65;2.45;;;;;;;7.45;100.00;99955.50;4894976;29;20059;-78
2023/12/10 10:07:09;;;;;;;14.13;2.30;;;;;;;7.44;100.00;99956.38;4894058;29;20066;-78
2023/12/10 10:09:37;;;;;;;21.80;3.28;;;;;;;7.41;100.00;99958.13;4912817;29;20417;-78
2023/12/10 10:12:06;;;;;;;18.20;2.85;;;;;;;7.39;100.00;99972.97;4941510;29;20523;-78
2023/12/10 10:14:34;;;;;;;17.67;2.70;;;;;;;7.40;100.00;99976.47;4905908;29;20045;-77
2023/12/10 10:17:03;;;;;;;19.88;2.42;;;;;;;7.39;100.00;99970.34;4898194;29;20509;-78
2023/12/10 10:19:30;;;;;;;17.27;2.85;;;;;;;7.41;100.00;99980.84;4894127;29;20054;-79
2023/12/10 10:21:58;;;;;;;15.43;2.80;;;;;;;7.42;100.00;99988.69;4867264;29;20054;-77
2023/12/10 10:24:25;;;;;;;16.70;3.13;;;;;;;7.42;100.00;99985.19;4885738;29;20059;-78
2023/12/10 10:26:54;;;;;;;17.75;2.95;;;;;;;7.42;100.00;99996.56;4928735;29;20424;-79
2023/12/10 10:29:25;;;;;;;11.45;3.00;;;;;;;7.40;100.00;99987.81;4893914;29;20143;-78
2023/12/10 10:31:56;;;;;;;18.17;2.35;;;;;;;7.40;100.00;100003.53;4896841;29;20050;-76
2023/12/10 10:34:23;;;;;;;11.75;2.22;;;;;;;7.38;100.00;100000.03;4897372;29;21425;-79
2023/12/10 10:36:52;;;;;;;14.32;2.83;;;;;;;7.37;100.00;99995.69;4926499;29;20063;-78
2023/12/10 10:39:19;;;;;;;14.90;3.03;;;;;;;7.37;100.00;100006.19;4840131;29;20047;-80
2023/12/10 10:41:49;;;;;;;16.15;2.58;;;;;;;7.38;100.00;100001.81;4939183;29;20043;-78
2023/12/10 10:44:16;;;;;;;20.17;2.92;;;;;;;7.37;100.00;100018.38;4900906;29;20514;-77
2023/12/10 10:46:44;;;;;;;12.43;1.88;;;;;;;7.36;100.00;100014.03;4929836;29;20390;-78
2023/12/10 10:49:14;;;;;;;12.48;2.90;;;;;;;7.36;100.00;100020.13;4929517;29;20534;-78
2023/12/10 10:51:42;;;;;;;12.73;2.92;;;;;;;7.35;100.00;100015.78;4936609;29;20051;-79
2023/12/10 10:54:10;;;;;;;22.85;3.78;;;;;;;7.36;100.00;100022.75;4881193;29;20048;-77
2023/12/10 10:56:38;;;;;;;19.95;3.08;;;;;;;7.35;100.00;100039.38;4898467;29;20054;-78
2023/12/10 10:59:29;;;;;;;13.13;2.88;;;;;;;7.35;100.00;100035.84;4896268;29;20519;-77
2023/12/10 11:02:15;;;;;;;14.38;2.70;;;;;;;7.36;100.00;100048.09;4920209;29;20058;-77
2023/12/10 11:04:47;;;;;;;18.55;3.85;;;;;;;7.37;100.00;100036.72;4927479;29;20046;-78
2023/12/10 11:07:16;;;;;;;15.90;2.85;;;;;;;7.37;100.00;100037.63;4907976;29;20043;-79
2023/12/10 11:10:01;;;;;;;12.20;2.20;;;;;;;7.40;100.00;100023.66;4850978;29;20051;-78
2023/12/10 11:12:40;;;;;;;12.70;2.60;;;;;;;7.44;100.00;100030.66;4911000;29;20046;-79
2023/12/10 11:15:17;;;;;;;20.73;2.23;;;;;;;7.47;100.00;100030.66;4896808;29;20051;-79
2023/12/10 11:17:54;;;;;;;24.25;3.30;;;;;;;7.53;100.00;100032.44;4925283;29;20051;-78
2023/12/10 11:20:43;;;;;;;16.52;2.83;;;;;;;7.56;100.00;100029.78;4899318;29;20051;-78
2023/12/10 11:23:12;;;;;;;15.60;2.30;;;;;;;7.59;100.00;100041.16;4891238;29;20070;-78
2023/12/10 11:25:41;;;;;;;19.40;2.97;;;;;;;7.65;100.00;100050.78;4886885;29;20051;-77
2023/12/10 11:28:17;;;;;;;21.98;3.55;;;;;;;7.72;100.00;100044.69;4902637;29;20051;-77
2023/12/10 11:30:46;;;;;;;25.73;4.13;;;;;;;7.81;100.00;100051.72;4910066;29;20055;-77
2023/12/10 11:33:15;;;;;;;17.50;4.10;;;;;;;7.82;100.00;100050.81;4913750;29;20039;-78